createdAt,value
2023-04-07T00:00:46.973Z,5.83
2023-04-07T00:05:48.576Z,5.64
2023-04-07T00:10:50.359Z,5.79
2023-04-07T00:15:52.014Z,5.53
2023-04-07T00:20:53.639Z,5.69
2023-04-07T00:25:55.325Z,5.57
2023-04-07T00:30:57.048Z,5.41
2023-04-07T00:35:58.838Z,5.52
2023-04-07T00:41:01.383Z,5.64
2023-04-07T00:46:03.147Z,5.64
2023-04-07T00:51:05.776Z,5.56
2023-04-07T00:56:07.568Z,5.78
2023-04-07T01:01:18.565Z,4.93
2023-04-07T01:06:25.061Z,5.43
2023-04-07T01:11:52.981Z,4.55
2023-04-07T01:16:58.668Z,4.99
2023-04-07T01:22:01.209Z,5.18
2023-04-07T01:27:21.550Z,4.49
2023-04-07T01:32:25.195Z,5.08
2023-04-07T01:37:33.610Z,5.20
2023-04-07T01:42:36.875Z,4.81
2023-04-07T01:47:39.392Z,5.14
2023-04-07T01:52:41.672Z,4.87
2023-04-07T01:57:43.236Z,4.71
2023-04-07T02:02:49.594Z,4.92
2023-04-07T02:07:59.896Z,4.84
2023-04-07T02:13:04.093Z,4.63
2023-04-07T02:18:10.611Z,4.73
2023-04-07T02:23:13.702Z,4.83
2023-04-07T02:28:15.611Z,4.81
2023-04-07T02:33:17.259Z,4.52
2023-04-07T02:38:18.812Z,4.84
2023-04-07T02:43:21.713Z,4.42
2023-04-07T02:48:23.288Z,4.67
2023-04-07T02:53:24.927Z,4.76
2023-04-07T02:58:26.685Z,4.62
2023-04-07T03:03:28.382Z,4.50
2023-04-07T03:08:30.031Z,4.44
2023-04-07T03:13:32.335Z,4.74
2023-04-07T03:18:33.944Z,4.67
2023-04-07T03:23:35.643Z,4.40
2023-04-07T03:28:37.403Z,4.45
2023-04-07T03:33:39.235Z,4.49
2023-04-07T03:38:40.874Z,4.50
2023-04-07T03:43:42.521Z,4.35
2023-04-07T03:48:44.154Z,4.27
2023-04-07T03:53:45.813Z,4.55
2023-04-07T03:58:48.968Z,4.32
2023-04-07T04:03:51.620Z,4.37
2023-04-07T04:08:53.609Z,4.44
2023-04-07T04:13:55.383Z,4.50
2023-04-07T04:18:57.133Z,4.30
2023-04-07T04:23:58.802Z,4.40
2023-04-07T04:29:00.436Z,4.10
2023-04-07T04:34:02.048Z,4.62
2023-04-07T04:39:03.742Z,4.13
2023-04-07T04:44:05.405Z,4.63
2023-04-07T04:49:07.245Z,4.35
2023-04-07T04:54:08.852Z,4.48
2023-04-07T04:59:10.533Z,4.40
2023-04-07T05:04:12.355Z,4.36
2023-04-07T05:09:14.280Z,4.41
2023-04-07T05:14:15.901Z,4.74
2023-04-07T05:19:17.528Z,3.76
2023-04-07T05:24:19.225Z,4.34
2023-04-07T05:29:20.839Z,4.24
2023-04-07T05:34:22.492Z,4.31
2023-04-07T05:39:24.286Z,4.34
2023-04-07T05:44:25.943Z,4.22
2023-04-07T05:49:27.845Z,4.48
2023-04-07T05:54:30.519Z,4.53
2023-04-07T05:59:32.163Z,4.84
2023-04-07T06:04:35.446Z,4.63
2023-04-07T06:09:37.175Z,4.60
2023-04-07T06:14:39.359Z,4.68
2023-04-07T06:19:42.132Z,4.73
2023-04-07T06:24:43.907Z,4.61
2023-04-07T06:29:45.594Z,4.70
2023-04-07T06:34:47.380Z,4.72
2023-04-07T06:39:49.180Z,4.95
2023-04-07T06:44:50.796Z,4.87
2023-04-07T06:49:52.429Z,4.73
2023-04-07T06:54:54.061Z,5.02
2023-04-07T06:59:56.503Z,4.89
2023-04-07T07:04:58.145Z,4.95
2023-04-07T07:09:59.804Z,5.16
2023-04-07T07:15:01.471Z,5.09
2023-04-07T07:20:03.288Z,5.33
2023-04-07T07:25:05.399Z,5.39
2023-04-07T07:30:07.658Z,5.54
2023-04-07T07:35:09.464Z,5.63
2023-04-07T07:40:11.562Z,5.67
2023-04-07T07:45:14.138Z,5.88
2023-04-07T07:50:15.822Z,5.95
2023-04-07T07:55:17.483Z,6.08
2023-04-07T08:00:19.423Z,6.25
2023-04-07T08:05:21.038Z,6.38
2023-04-07T08:10:23.740Z,6.49
2023-04-07T08:15:25.668Z,6.60
2023-04-07T08:20:27.781Z,6.77
2023-04-07T08:25:29.958Z,6.85
2023-04-07T08:30:31.590Z,6.83
2023-04-07T08:35:33.232Z,6.93
2023-04-07T08:40:34.980Z,7.10
2023-04-07T08:45:42.281Z,7.81
2023-04-07T08:50:45.848Z,7.59
2023-04-07T08:55:47.882Z,7.89
2023-04-07T09:00:50.256Z,7.82
2023-04-07T09:05:52.411Z,7.91
2023-04-07T09:10:54.987Z,7.86
2023-04-07T09:15:56.817Z,8.27
2023-04-07T09:21:00.401Z,8.38
2023-04-07T09:26:18.758Z,8.38
2023-04-07T09:31:21.585Z,8.32
2023-04-07T09:36:25.010Z,8.14
2023-04-07T09:41:28.109Z,8.36
2023-04-07T09:46:30.002Z,8.30
2023-04-07T09:51:31.644Z,8.91
2023-04-07T09:56:33.810Z,8.98
2023-04-07T10:01:36.004Z,9.40
2023-04-07T10:06:37.780Z,9.15
2023-04-07T10:11:43.402Z,8.81
2023-04-07T10:16:46.992Z,9.49
2023-04-07T10:21:53.055Z,10.09
2023-04-07T10:26:58.030Z,9.81
2023-04-07T10:32:01.754Z,9.61
2023-04-07T10:37:14.282Z,9.47
2023-04-07T10:42:37.593Z,9.83
2023-04-07T10:48:12.540Z,9.73
2023-04-07T10:53:15.726Z,9.86
2023-04-07T10:58:30.000Z,10.22
2023-04-07T11:03:36.273Z,10.49
2023-04-07T11:08:38.888Z,10.88
2023-04-07T11:13:51.236Z,11.21
2023-04-07T11:18:57.502Z,10.69
2023-04-07T11:23:59.187Z,10.98
2023-04-07T11:29:01.816Z,11.37
2023-04-07T11:34:05.331Z,11.06
2023-04-07T11:39:19.377Z,11.22
2023-04-07T11:44:21.001Z,11.05
2023-04-07T11:49:24.077Z,11.28
2023-04-07T11:54:26.127Z,11.22
2023-04-07T11:59:28.761Z,12.00
2023-04-07T12:04:31.346Z,12.49
2023-04-07T12:09:36.247Z,12.55
2023-04-07T12:14:38.161Z,12.22
2023-04-07T12:19:39.919Z,12.73
2023-04-07T12:24:41.704Z,12.87
2023-04-07T12:29:44.084Z,13.03
2023-04-07T12:34:45.643Z,12.83
2023-04-07T12:39:47.268Z,12.94
2023-04-07T12:44:48.903Z,12.86
2023-04-07T12:49:50.556Z,12.55
2023-04-07T12:54:53.387Z,12.73
2023-04-07T12:59:54.957Z,12.59
2023-04-07T13:04:56.736Z,12.93
2023-04-07T13:09:58.349Z,12.85
2023-04-07T13:15:00.661Z,12.84
2023-04-07T13:20:06.859Z,13.61
2023-04-07T13:25:08.909Z,13.54
2023-04-07T13:30:11.246Z,12.97
2023-04-07T13:35:12.940Z,13.10
2023-04-07T13:40:14.539Z,13.43
2023-04-07T13:45:16.459Z,13.75
2023-04-07T13:50:18.119Z,13.37
2023-04-07T13:55:20.514Z,13.16
2023-04-07T14:00:22.177Z,13.19
2023-04-07T14:05:24.812Z,13.26
2023-04-07T14:10:27.362Z,13.38
2023-04-07T14:15:28.986Z,13.50
2023-04-07T14:20:30.745Z,13.18
2023-04-07T14:25:32.401Z,13.31
2023-04-07T14:30:38.844Z,13.37
2023-04-07T14:35:40.743Z,13.27
2023-04-07T14:40:42.360Z,13.10
2023-04-07T14:45:44.498Z,12.58
2023-04-07T14:50:46.861Z,12.53
2023-04-07T14:55:49.427Z,12.94
2023-04-07T15:00:51.037Z,13.66
2023-04-07T15:05:52.618Z,13.35
2023-04-07T15:10:54.260Z,12.64
2023-04-07T15:15:56.121Z,12.41
2023-04-07T15:20:57.765Z,12.35
2023-04-07T15:25:59.604Z,12.34
2023-04-07T15:31:01.600Z,11.82
2023-04-07T15:36:04.407Z,11.71
2023-04-07T15:41:06.434Z,11.69
2023-04-07T15:46:08.057Z,11.41
2023-04-07T15:51:09.648Z,11.24
2023-04-07T15:56:13.539Z,11.14
2023-04-07T16:01:15.628Z,11.10
2023-04-07T16:06:17.280Z,11.08
2023-04-07T16:11:18.842Z,11.11
2023-04-07T16:16:20.944Z,10.88
2023-04-07T16:21:22.521Z,10.92
2023-04-07T16:26:24.180Z,10.85
2023-04-07T16:31:26.076Z,10.75
2023-04-07T16:36:29.061Z,10.75
2023-04-07T16:41:30.874Z,10.69
2023-04-07T16:46:32.672Z,10.65
2023-04-07T16:51:34.342Z,10.64
2023-04-07T16:56:35.925Z,10.47
2023-04-07T17:01:41.991Z,10.34
2023-04-07T17:06:43.927Z,10.23
2023-04-07T17:11:45.691Z,10.12
2023-04-07T17:16:47.554Z,10.09
2023-04-07T17:21:49.139Z,10.07
2023-04-07T17:26:50.713Z,9.92
2023-04-07T17:31:52.281Z,9.93
2023-04-07T17:36:53.869Z,10.00
2023-04-07T17:41:55.641Z,9.89
2023-04-07T17:46:57.574Z,9.61
2023-04-07T17:51:59.167Z,9.97
2023-04-07T17:57:01.194Z,9.77
2023-04-07T18:02:09.030Z,9.67
2023-04-07T18:07:12.949Z,9.82
2023-04-07T18:12:14.571Z,9.71
2023-04-07T18:17:16.165Z,9.47
2023-04-07T18:22:18.056Z,9.51
2023-04-07T18:27:23.969Z,9.57
2023-04-07T18:32:25.715Z,9.71
2023-04-07T18:37:27.549Z,9.63
2023-04-07T18:42:29.245Z,9.59
2023-04-07T18:47:30.894Z,9.62
2023-04-07T18:52:32.770Z,9.55
2023-04-07T18:57:34.443Z,9.49
2023-04-07T19:02:36.311Z,9.57
2023-04-07T19:07:38.139Z,9.66
2023-04-07T19:12:40.136Z,9.48
2023-04-07T19:17:42.029Z,9.44
2023-04-07T19:22:44.094Z,9.47
2023-04-07T19:27:46.527Z,9.45
2023-04-07T19:32:48.253Z,9.52
2023-04-07T19:37:52.139Z,9.48
2023-04-07T19:42:55.445Z,9.42
2023-04-07T19:47:57.217Z,9.35
2023-04-07T19:52:58.995Z,9.29
2023-04-07T19:58:00.628Z,9.28
2023-04-07T20:03:03.857Z,9.30
2023-04-07T20:08:06.121Z,9.25
2023-04-07T20:13:09.167Z,9.23
2023-04-07T20:18:11.262Z,9.38
2023-04-07T20:23:14.899Z,9.24
2023-04-07T20:28:16.552Z,9.26
2023-04-07T20:33:18.414Z,9.27
2023-04-07T20:38:20.258Z,9.13
2023-04-07T20:43:23.737Z,9.21
2023-04-07T20:48:26.160Z,9.22
2023-04-07T20:53:27.926Z,9.11
2023-04-07T20:58:29.493Z,9.02
2023-04-07T21:03:31.398Z,8.97
2023-04-07T21:08:33.071Z,8.99
2023-04-07T21:13:34.665Z,9.07
2023-04-07T21:18:36.466Z,8.85
2023-04-07T21:23:38.089Z,8.98
2023-04-07T21:28:42.865Z,8.88
2023-04-07T21:33:45.742Z,8.90
2023-04-07T21:38:47.847Z,8.74
2023-04-07T21:43:49.638Z,8.76
2023-04-07T21:48:51.290Z,8.70
2023-04-07T21:53:53.020Z,8.59
2023-04-07T21:58:54.596Z,8.63
2023-04-07T22:03:56.276Z,8.80
2023-04-07T22:09:01.759Z,8.69
2023-04-07T22:14:03.905Z,8.77
2023-04-07T22:19:05.743Z,8.69
2023-04-07T22:24:07.366Z,8.60
2023-04-07T22:29:09.639Z,8.53
2023-04-07T22:34:11.437Z,8.50
2023-04-07T22:39:13.051Z,8.48
2023-04-07T22:44:14.676Z,8.53
2023-04-07T22:49:16.790Z,8.47
2023-04-07T22:54:18.441Z,8.33
2023-04-07T22:59:20.059Z,8.55
2023-04-07T23:04:22.430Z,8.30
2023-04-07T23:09:24.029Z,8.29
2023-04-07T23:14:25.702Z,8.34
2023-04-07T23:19:27.390Z,8.46
2023-04-07T23:24:29.017Z,8.34
2023-04-07T23:29:31.182Z,8.51
2023-04-07T23:34:32.816Z,8.23
2023-04-07T23:39:34.532Z,8.26
2023-04-07T23:44:36.210Z,8.29
2023-04-07T23:49:37.831Z,8.18
2023-04-07T23:54:39.523Z,8.32
2023-04-07T23:59:41.562Z,8.08
